sensor_id;sensor_type;location;lat;lon;timestamp;temperature;humidity
9790;DHT22;4934;50.852;8.098;2023-05-07T00:01:15;12.80;99.90
9790;DHT22;4934;50.852;8.098;2023-05-07T00:03:41;12.80;99.90
9790;DHT22;4934;50.852;8.098;2023-05-07T00:06:07;12.80;99.90
9790;DHT22;4934;50.852;8.098;2023-05-07T00:08:32;12.80;99.90
9790;DHT22;4934;50.852;8.098;2023-05-07T00:10:58;12.70;99.90
9790;DHT22;4934;50.852;8.098;2023-05-07T00:13:23;12.80;99.90
9790;DHT22;4934;50.852;8.098;2023-05-07T00:15:49;12.70;99.90
9790;DHT22;4934;50.852;8.098;2023-05-07T00:18:15;12.80;99.90
9790;DHT22;4934;50.852;8.098;2023-05-07T00:20:41;12.70;99.90
9790;DHT22;4934;50.852;8.098;2023-05-07T00:23:06;12.70;99.90
9790;DHT22;4934;50.852;8.098;2023-05-07T00:25:32;12.70;99.90
9790;DHT22;4934;50.852;8.098;2023-05-07T00:27:57;12.60;99.90
9790;DHT22;4934;50.852;8.098;2023-05-07T00:30:28;12.70;99.90
9790;DHT22;4934;50.852;8.098;2023-05-07T00:32:54;12.70;99.90
9790;DHT22;4934;50.852;8.098;2023-05-07T00:35:20;12.60;99.90
9790;DHT22;4934;50.852;8.098;2023-05-07T00:37:45;12.70;99.90
9790;DHT22;4934;50.852;8.098;2023-05-07T00:40:11;12.70;99.90
9790;DHT22;4934;50.852;8.098;2023-05-07T00:42:37;12.70;99.90
9790;DHT22;4934;50.852;8.098;2023-05-07T00:45:02;12.70;99.90
9790;DHT22;4934;50.852;8.098;2023-05-07T00:47:28;12.60;99.90
9790;DHT22;4934;50.852;8.098;2023-05-07T00:49:54;12.60;99.90
9790;DHT22;4934;50.852;8.098;2023-05-07T00:52:21;12.60;99.90
9790;DHT22;4934;50.852;8.098;2023-05-07T00:54:47;12.60;99.90
9790;DHT22;4934;50.852;8.098;2023-05-07T00:57:13;12.60;99.90
9790;DHT22;4934;50.852;8.098;2023-05-07T00:59:40;12.70;99.90
9790;DHT22;4934;50.852;8.098;2023-05-07T01:02:07;12.60;99.90
9790;DHT22;4934;50.852;8.098;2023-05-07T01:04:33;12.60;99.90
9790;DHT22;4934;50.852;8.098;2023-05-07T01:06:59;12.70;99.90
9790;DHT22;4934;50.852;8.098;2023-05-07T01:09:26;12.60;99.90
9790;DHT22;4934;50.852;8.098;2023-05-07T01:11:53;12.60;99.90
9790;DHT22;4934;50.852;8.098;2023-05-07T01:14:19;12.70;99.90
9790;DHT22;4934;50.852;8.098;2023-05-07T01:16:46;12.50;99.90
9790;DHT22;4934;50.852;8.098;2023-05-07T01:19:12;12.40;99.90
9790;DHT22;4934;50.852;8.098;2023-05-07T01:21:45;12.40;99.90
9790;DHT22;4934;50.852;8.098;2023-05-07T01:24:11;12.30;99.90
9790;DHT22;4934;50.852;8.098;2023-05-07T01:26:38;12.30;99.90
9790;DHT22;4934;50.852;8.098;2023-05-07T01:29:04;12.30;99.90
9790;DHT22;4934;50.852;8.098;2023-05-07T01:31:29;12.30;99.90
9790;DHT22;4934;50.852;8.098;2023-05-07T01:33:57;12.30;99.90
9790;DHT22;4934;50.852;8.098;2023-05-07T01:36:25;12.30;99.90
9790;DHT22;4934;50.852;8.098;2023-05-07T01:38:52;12.30;99.90
9790;DHT22;4934;50.852;8.098;2023-05-07T01:41:19;12.30;99.90
9790;DHT22;4934;50.852;8.098;2023-05-07T01:43:46;12.30;99.90
9790;DHT22;4934;50.852;8.098;2023-05-07T01:46:13;12.30;99.90
9790;DHT22;4934;50.852;8.098;2023-05-07T01:48:39;12.30;99.90
9790;DHT22;4934;50.852;8.098;2023-05-07T01:51:05;12.30;99.90
9790;DHT22;4934;50.852;8.098;2023-05-07T01:53:38;12.30;99.90
9790;DHT22;4934;50.852;8.098;2023-05-07T01:56:04;12.30;99.90
9790;DHT22;4934;50.852;8.098;2023-05-07T01:58:30;12.30;99.90
9790;DHT22;4934;50.852;8.098;2023-05-07T02:00:56;12.30;99.90
9790;DHT22;4934;50.852;8.098;2023-05-07T02:03:22;12.20;99.90
9790;DHT22;4934;50.852;8.098;2023-05-07T02:05:48;12.20;99.90
9790;DHT22;4934;50.852;8.098;2023-05-07T02:11:59;12.20;99.90
9790;DHT22;4934;50.852;8.098;2023-05-07T02:14:25;12.20;99.90
9790;DHT22;4934;50.852;8.098;2023-05-07T02:16:51;12.20;99.90
9790;DHT22;4934;50.852;8.098;2023-05-07T02:19:16;12.20;99.90
9790;DHT22;4934;50.852;8.098;2023-05-07T02:21:43;12.30;99.90
9790;DHT22;4934;50.852;8.098;2023-05-07T02:24:09;12.20;99.90
9790;DHT22;4934;50.852;8.098;2023-05-07T02:26:34;12.30;99.90
9790;DHT22;4934;50.852;8.098;2023-05-07T02:29:00;12.30;99.90
9790;DHT22;4934;50.852;8.098;2023-05-07T02:31:25;12.30;99.90
9790;DHT22;4934;50.852;8.098;2023-05-07T02:33:51;12.30;99.90
9790;DHT22;4934;50.852;8.098;2023-05-07T02:36:16;12.30;99.90
9790;DHT22;4934;50.852;8.098;2023-05-07T02:38:42;12.30;99.90
9790;DHT22;4934;50.852;8.098;2023-05-07T02:41:08;12.30;99.90
9790;DHT22;4934;50.852;8.098;2023-05-07T02:43:33;12.40;99.90
9790;DHT22;4934;50.852;8.098;2023-05-07T02:46:07;12.20;99.90
9790;DHT22;4934;50.852;8.098;2023-05-07T02:48:32;12.10;99.90
9790;DHT22;4934;50.852;8.098;2023-05-07T02:50:59;12.10;99.90
9790;DHT22;4934;50.852;8.098;2023-05-07T02:53:25;12.10;99.90
9790;DHT22;4934;50.852;8.098;2023-05-07T02:55:56;12.20;99.90
9790;DHT22;4934;50.852;8.098;2023-05-07T02:58:22;12.10;99.90
9790;DHT22;4934;50.852;8.098;2023-05-07T03:00:48;12.20;99.90
9790;DHT22;4934;50.852;8.098;2023-05-07T03:03:14;12.20;99.90
9790;DHT22;4934;50.852;8.098;2023-05-07T03:05:39;12.30;99.90
9790;DHT22;4934;50.852;8.098;2023-05-07T03:08:05;12.20;99.90
9790;DHT22;4934;50.852;8.098;2023-05-07T03:10:30;12.30;99.90
9790;DHT22;4934;50.852;8.098;2023-05-07T03:12:56;12.20;99.90
9790;DHT22;4934;50.852;8.098;2023-05-07T03:15:22;12.20;99.90
9790;DHT22;4934;50.852;8.098;2023-05-07T03:17:48;12.20;99.90
9790;DHT22;4934;50.852;8.098;2023-05-07T03:20:13;12.20;99.90
9790;DHT22;4934;50.852;8.098;2023-05-07T03:22:40;12.20;99.90
9790;DHT22;4934;50.852;8.098;2023-05-07T03:25:06;12.20;99.90
9790;DHT22;4934;50.852;8.098;2023-05-07T03:27:36;12.20;99.90
9790;DHT22;4934;50.852;8.098;2023-05-07T03:30:02;12.20;99.90
9790;DHT22;4934;50.852;8.098;2023-05-07T03:32:27;12.20;99.90
9790;DHT22;4934;50.852;8.098;2023-05-07T03:34:53;12.20;99.90
9790;DHT22;4934;50.852;8.098;2023-05-07T03:37:19;12.20;99.90
9790;DHT22;4934;50.852;8.098;2023-05-07T03:39:44;12.20;99.90
9790;DHT22;4934;50.852;8.098;2023-05-07T03:42:10;12.20;99.90
9790;DHT22;4934;50.852;8.098;2023-05-07T03:44:36;12.20;99.90
9790;DHT22;4934;50.852;8.098;2023-05-07T03:47:02;12.20;99.90
9790;DHT22;4934;50.852;8.098;2023-05-07T03:49:28;12.20;99.90
9790;DHT22;4934;50.852;8.098;2023-05-07T03:51:53;12.20;99.90
9790;DHT22;4934;50.852;8.098;2023-05-07T03:54:19;12.20;99.90
9790;DHT22;4934;50.852;8.098;2023-05-07T03:56:44;12.20;99.90
9790;DHT22;4934;50.852;8.098;2023-05-07T03:59:10;12.10;99.90
9790;DHT22;4934;50.852;8.098;2023-05-07T04:01:35;12.20;99.90
9790;DHT22;4934;50.852;8.098;2023-05-07T04:04:01;12.30;99.90
9790;DHT22;4934;50.852;8.098;2023-05-07T04:06:26;12.30;99.90
9790;DHT22;4934;50.852;8.098;2023-05-07T04:08:52;12.40;99.90
9790;DHT22;4934;50.852;8.098;2023-05-07T04:11:18;12.30;99.90
9790;DHT22;4934;50.852;8.098;2023-05-07T04:13:44;12.20;99.90
9790;DHT22;4934;50.852;8.098;2023-05-07T04:16:09;12.20;99.90
9790;DHT22;4934;50.852;8.098;2023-05-07T04:18:35;12.20;99.90
9790;DHT22;4934;50.852;8.098;2023-05-07T04:21:00;12.10;99.90
9790;DHT22;4934;50.852;8.098;2023-05-07T04:23:26;12.20;99.90
9790;DHT22;4934;50.852;8.098;2023-05-07T04:25:52;12.20;99.90
9790;DHT22;4934;50.852;8.098;2023-05-07T04:28:18;12.20;99.90
9790;DHT22;4934;50.852;8.098;2023-05-07T04:30:43;12.20;99.90
9790;DHT22;4934;50.852;8.098;2023-05-07T04:33:09;12.30;99.90
9790;DHT22;4934;50.852;8.098;2023-05-07T04:35:36;12.30;99.90
9790;DHT22;4934;50.852;8.098;2023-05-07T04:38:01;12.30;99.90
9790;DHT22;4934;50.852;8.098;2023-05-07T04:40:27;12.30;99.90
9790;DHT22;4934;50.852;8.098;2023-05-07T04:42:52;12.40;99.90
9790;DHT22;4934;50.852;8.098;2023-05-07T04:45:18;12.40;99.90
9790;DHT22;4934;50.852;8.098;2023-05-07T04:47:44;12.50;99.90
9790;DHT22;4934;50.852;8.098;2023-05-07T04:50:10;12.50;99.90
9790;DHT22;4934;50.852;8.098;2023-05-07T04:52:36;12.60;99.90
9790;DHT22;4934;50.852;8.098;2023-05-07T04:55:01;12.60;99.90
9790;DHT22;4934;50.852;8.098;2023-05-07T04:57:27;12.60;99.90
9790;DHT22;4934;50.852;8.098;2023-05-07T04:59:53;12.60;99.90
9790;DHT22;4934;50.852;8.098;2023-05-07T05:02:19;12.70;99.90
9790;DHT22;4934;50.852;8.098;2023-05-07T05:04:45;12.80;99.90
9790;DHT22;4934;50.852;8.098;2023-05-07T05:07:11;12.80;99.90
9790;DHT22;4934;50.852;8.098;2023-05-07T05:09:36;12.90;99.90
9790;DHT22;4934;50.852;8.098;2023-05-07T05:12:02;13.00;99.90
9790;DHT22;4934;50.852;8.098;2023-05-07T05:14:28;13.10;99.90
9790;DHT22;4934;50.852;8.098;2023-05-07T05:16:53;13.10;99.90
9790;DHT22;4934;50.852;8.098;2023-05-07T05:19:19;13.20;99.90
9790;DHT22;4934;50.852;8.098;2023-05-07T05:21:44;13.30;99.90
9790;DHT22;4934;50.852;8.098;2023-05-07T05:24:10;13.30;99.90
9790;DHT22;4934;50.852;8.098;2023-05-07T05:26:35;13.40;99.90
9790;DHT22;4934;50.852;8.098;2023-05-07T05:29:01;13.40;99.90
9790;DHT22;4934;50.852;8.098;2023-05-07T05:31:26;13.50;99.90
9790;DHT22;4934;50.852;8.098;2023-05-07T05:33:52;13.50;99.90
9790;DHT22;4934;50.852;8.098;2023-05-07T05:36:18;13.60;99.90
9790;DHT22;4934;50.852;8.098;2023-05-07T05:38:43;13.70;99.90
9790;DHT22;4934;50.852;8.098;2023-05-07T05:41:09;13.70;99.90
9790;DHT22;4934;50.852;8.098;2023-05-07T05:43:35;13.80;99.90
9790;DHT22;4934;50.852;8.098;2023-05-07T05:46:01;13.80;99.90
9790;DHT22;4934;50.852;8.098;2023-05-07T05:48:28;13.90;99.90
9790;DHT22;4934;50.852;8.098;2023-05-07T05:50:54;14.00;99.90
9790;DHT22;4934;50.852;8.098;2023-05-07T05:53:19;14.10;99.90
9790;DHT22;4934;50.852;8.098;2023-05-07T05:55:45;14.30;99.90
9790;DHT22;4934;50.852;8.098;2023-05-07T05:58:11;14.20;99.90
9790;DHT22;4934;50.852;8.098;2023-05-07T06:00:37;14.30;99.90
9790;DHT22;4934;50.852;8.098;2023-05-07T06:03:02;14.30;99.90
9790;DHT22;4934;50.852;8.098;2023-05-07T06:05:28;14.60;99.90
9790;DHT22;4934;50.852;8.098;2023-05-07T06:07:53;14.70;99.90
9790;DHT22;4934;50.852;8.098;2023-05-07T06:10:19;14.80;99.90
9790;DHT22;4934;50.852;8.098;2023-05-07T06:12:45;14.90;99.90
9790;DHT22;4934;50.852;8.098;2023-05-07T06:15:10;15.00;99.90
9790;DHT22;4934;50.852;8.098;2023-05-07T06:17:36;15.20;99.90
9790;DHT22;4934;50.852;8.098;2023-05-07T06:20:01;15.50;99.90
9790;DHT22;4934;50.852;8.098;2023-05-07T06:22:27;15.50;99.90
9790;DHT22;4934;50.852;8.098;2023-05-07T06:24:53;15.60;99.90
9790;DHT22;4934;50.852;8.098;2023-05-07T06:27:18;15.80;99.90
9790;DHT22;4934;50.852;8.098;2023-05-07T06:29:44;16.00;99.90
9790;DHT22;4934;50.852;8.098;2023-05-07T06:32:13;16.10;99.90
9790;DHT22;4934;50.852;8.098;2023-05-07T06:34:40;16.20;99.90
9790;DHT22;4934;50.852;8.098;2023-05-07T06:37:06;16.30;99.90
9790;DHT22;4934;50.852;8.098;2023-05-07T06:39:32;16.40;99.90
9790;DHT22;4934;50.852;8.098;2023-05-07T06:41:58;16.30;99.90
9790;DHT22;4934;50.852;8.098;2023-05-07T06:44:23;16.30;99.90
9790;DHT22;4934;50.852;8.098;2023-05-07T06:46:49;16.40;99.90
9790;DHT22;4934;50.852;8.098;2023-05-07T06:49:15;16.60;99.90
9790;DHT22;4934;50.852;8.098;2023-05-07T06:51:40;16.70;99.90
9790;DHT22;4934;50.852;8.098;2023-05-07T06:54:06;16.90;99.90
9790;DHT22;4934;50.852;8.098;2023-05-07T06:56:32;17.00;99.90
9790;DHT22;4934;50.852;8.098;2023-05-07T06:58:59;17.10;99.90
9790;DHT22;4934;50.852;8.098;2023-05-07T07:01:25;17.40;99.90
9790;DHT22;4934;50.852;8.098;2023-05-07T07:03:51;17.70;99.90
9790;DHT22;4934;50.852;8.098;2023-05-07T07:06:17;17.80;99.90
9790;DHT22;4934;50.852;8.098;2023-05-07T07:08:42;18.00;99.90
9790;DHT22;4934;50.852;8.098;2023-05-07T07:11:09;18.20;99.90
9790;DHT22;4934;50.852;8.098;2023-05-07T07:13:35;18.40;99.90
9790;DHT22;4934;50.852;8.098;2023-05-07T07:16:01;18.60;99.90
9790;DHT22;4934;50.852;8.098;2023-05-07T07:18:27;18.80;99.90
9790;DHT22;4934;50.852;8.098;2023-05-07T07:20:52;18.90;99.90
9790;DHT22;4934;50.852;8.098;2023-05-07T07:23:18;19.10;99.90
9790;DHT22;4934;50.852;8.098;2023-05-07T07:25:44;19.20;99.90
9790;DHT22;4934;50.852;8.098;2023-05-07T07:28:10;18.90;99.90
9790;DHT22;4934;50.852;8.098;2023-05-07T07:30:37;18.70;99.90
9790;DHT22;4934;50.852;8.098;2023-05-07T07:33:03;18.60;99.90
9790;DHT22;4934;50.852;8.098;2023-05-07T07:35:32;18.70;99.90
9790;DHT22;4934;50.852;8.098;2023-05-07T07:37:58;18.30;99.90
9790;DHT22;4934;50.852;8.098;2023-05-07T07:40:23;18.50;99.90
9790;DHT22;4934;50.852;8.098;2023-05-07T07:42:50;18.60;99.90
9790;DHT22;4934;50.852;8.098;2023-05-07T07:45:16;18.90;99.90
9790;DHT22;4934;50.852;8.098;2023-05-07T07:47:41;18.80;99.90
9790;DHT22;4934;50.852;8.098;2023-05-07T07:50:07;18.60;99.90
9790;DHT22;4934;50.852;8.098;2023-05-07T07:52:34;18.80;99.90
9790;DHT22;4934;50.852;8.098;2023-05-07T07:54:59;18.70;99.90
9790;DHT22;4934;50.852;8.098;2023-05-07T07:57:25;18.40;99.90
9790;DHT22;4934;50.852;8.098;2023-05-07T07:59:51;18.40;99.90
9790;DHT22;4934;50.852;8.098;2023-05-07T08:02:17;18.30;99.90
9790;DHT22;4934;50.852;8.098;2023-05-07T08:04:42;18.40;99.90
9790;DHT22;4934;50.852;8.098;2023-05-07T08:07:09;18.30;99.90
9790;DHT22;4934;50.852;8.098;2023-05-07T08:09:36;18.30;99.90
9790;DHT22;4934;50.852;8.098;2023-05-07T08:12:02;18.40;99.90
9790;DHT22;4934;50.852;8.098;2023-05-07T08:14:27;18.50;99.90
9790;DHT22;4934;50.852;8.098;2023-05-07T08:16:54;18.60;99.90
9790;DHT22;4934;50.852;8.098;2023-05-07T08:19:20;18.70;99.90
9790;DHT22;4934;50.852;8.098;2023-05-07T08:21:46;19.10;99.90
9790;DHT22;4934;50.852;8.098;2023-05-07T08:24:13;19.20;99.90
9790;DHT22;4934;50.852;8.098;2023-05-07T08:26:39;19.00;99.90
9790;DHT22;4934;50.852;8.098;2023-05-07T08:29:05;19.10;99.90
9790;DHT22;4934;50.852;8.098;2023-05-07T08:31:31;19.10;99.90
9790;DHT22;4934;50.852;8.098;2023-05-07T08:33:57;19.30;99.90
9790;DHT22;4934;50.852;8.098;2023-05-07T08:36:23;19.50;99.90
9790;DHT22;4934;50.852;8.098;2023-05-07T08:38:49;19.80;99.90
9790;DHT22;4934;50.852;8.098;2023-05-07T08:41:15;19.90;99.90
9790;DHT22;4934;50.852;8.098;2023-05-07T08:43:41;19.90;99.90
9790;DHT22;4934;50.852;8.098;2023-05-07T08:46:09;19.90;99.90
9790;DHT22;4934;50.852;8.098;2023-05-07T08:48:35;19.90;99.90
9790;DHT22;4934;50.852;8.098;2023-05-07T08:51:01;20.00;99.90
9790;DHT22;4934;50.852;8.098;2023-05-07T08:53:27;20.00;99.90
9790;DHT22;4934;50.852;8.098;2023-05-07T08:55:53;20.10;99.90
9790;DHT22;4934;50.852;8.098;2023-05-07T08:58:19;19.90;99.90
9790;DHT22;4934;50.852;8.098;2023-05-07T09:00:44;19.80;99.90
9790;DHT22;4934;50.852;8.098;2023-05-07T09:03:11;20.10;99.90
9790;DHT22;4934;50.852;8.098;2023-05-07T09:05:39;20.10;99.90
9790;DHT22;4934;50.852;8.098;2023-05-07T09:08:06;20.10;99.90
9790;DHT22;4934;50.852;8.098;2023-05-07T09:10:35;20.00;99.90
9790;DHT22;4934;50.852;8.098;2023-05-07T09:13:02;20.20;99.90
9790;DHT22;4934;50.852;8.098;2023-05-07T09:15:28;20.10;99.90
9790;DHT22;4934;50.852;8.098;2023-05-07T09:17:54;20.00;99.90
9790;DHT22;4934;50.852;8.098;2023-05-07T09:20:24;20.20;99.90
9790;DHT22;4934;50.852;8.098;2023-05-07T09:22:49;20.40;99.90
9790;DHT22;4934;50.852;8.098;2023-05-07T09:25:28;20.10;99.90
9790;DHT22;4934;50.852;8.098;2023-05-07T09:27:54;20.10;99.90
9790;DHT22;4934;50.852;8.098;2023-05-07T09:30:20;20.20;99.90
9790;DHT22;4934;50.852;8.098;2023-05-07T09:32:46;20.30;99.90
9790;DHT22;4934;50.852;8.098;2023-05-07T09:35:17;20.70;99.90
9790;DHT22;4934;50.852;8.098;2023-05-07T09:37:43;21.30;99.90
9790;DHT22;4934;50.852;8.098;2023-05-07T09:40:20;21.20;99.90
9790;DHT22;4934;50.852;8.098;2023-05-07T09:42:47;21.30;99.90
9790;DHT22;4934;50.852;8.098;2023-05-07T09:45:13;21.00;99.90
9790;DHT22;4934;50.852;8.098;2023-05-07T09:47:39;21.00;99.90
9790;DHT22;4934;50.852;8.098;2023-05-07T09:50:08;20.90;99.90
9790;DHT22;4934;50.852;8.098;2023-05-07T09:52:36;21.40;99.90
9790;DHT22;4934;50.852;8.098;2023-05-07T09:55:03;21.60;99.90
9790;DHT22;4934;50.852;8.098;2023-05-07T09:57:29;21.40;99.90
9790;DHT22;4934;50.852;8.098;2023-05-07T09:59:56;21.50;99.90
9790;DHT22;4934;50.852;8.098;2023-05-07T10:02:25;21.50;99.90
9790;DHT22;4934;50.852;8.098;2023-05-07T10:04:52;21.60;99.90
9790;DHT22;4934;50.852;8.098;2023-05-07T10:07:20;21.80;99.90
9790;DHT22;4934;50.852;8.098;2023-05-07T10:09:46;22.30;99.90
9790;DHT22;4934;50.852;8.098;2023-05-07T10:12:12;22.70;99.90
9790;DHT22;4934;50.852;8.098;2023-05-07T10:14:38;23.10;99.90
9790;DHT22;4934;50.852;8.098;2023-05-07T10:17:04;23.50;99.90
9790;DHT22;4934;50.852;8.098;2023-05-07T10:19:31;23.80;99.90
9790;DHT22;4934;50.852;8.098;2023-05-07T10:22:04;24.00;99.90
9790;DHT22;4934;50.852;8.098;2023-05-07T10:24:32;24.10;99.90
9790;DHT22;4934;50.852;8.098;2023-05-07T10:27:01;24.20;99.90
9790;DHT22;4934;50.852;8.098;2023-05-07T10:32:19;24.40;99.90
9790;DHT22;4934;50.852;8.098;2023-05-07T10:34:54;24.70;99.90
9790;DHT22;4934;50.852;8.098;2023-05-07T10:37:20;24.80;99.90
9790;DHT22;4934;50.852;8.098;2023-05-07T10:39:46;24.80;99.90
9790;DHT22;4934;50.852;8.098;2023-05-07T10:42:14;24.70;99.90
9790;DHT22;4934;50.852;8.098;2023-05-07T10:44:40;24.30;99.90
9790;DHT22;4934;50.852;8.098;2023-05-07T10:47:12;24.40;99.90
9790;DHT22;4934;50.852;8.098;2023-05-07T10:52:17;24.20;99.90
9790;DHT22;4934;50.852;8.098;2023-05-07T10:54:44;24.50;99.90
9790;DHT22;4934;50.852;8.098;2023-05-07T10:59:57;24.70;99.90
9790;DHT22;4934;50.852;8.098;2023-05-07T11:02:23;24.90;99.90
9790;DHT22;4934;50.852;8.098;2023-05-07T11:05:22;25.00;99.90
9790;DHT22;4934;50.852;8.098;2023-05-07T11:07:55;25.20;99.90
9790;DHT22;4934;50.852;8.098;2023-05-07T11:10:21;25.20;99.90
9790;DHT22;4934;50.852;8.098;2023-05-07T11:15:13;24.80;99.90
9790;DHT22;4934;50.852;8.098;2023-05-07T11:17:58;24.50;99.90
9790;DHT22;4934;50.852;8.098;2023-05-07T11:20:47;24.10;99.90
9790;DHT22;4934;50.852;8.098;2023-05-07T11:26:15;24.10;99.90
9790;DHT22;4934;50.852;8.098;2023-05-07T11:28:42;23.90;99.90
9790;DHT22;4934;50.852;8.098;2023-05-07T11:31:09;23.70;99.90
9790;DHT22;4934;50.852;8.098;2023-05-07T11:33:35;23.80;99.90
9790;DHT22;4934;50.852;8.098;2023-05-07T11:36:04;23.80;99.90
9790;DHT22;4934;50.852;8.098;2023-05-07T11:38:30;24.10;99.90
9790;DHT22;4934;50.852;8.098;2023-05-07T11:40:57;23.90;99.90
9790;DHT22;4934;50.852;8.098;2023-05-07T11:43:24;23.60;99.90
9790;DHT22;4934;50.852;8.098;2023-05-07T11:45:50;23.50;99.90
9790;DHT22;4934;50.852;8.098;2023-05-07T11:48:16;23.40;99.90
9790;DHT22;4934;50.852;8.098;2023-05-07T11:51:00;23.20;99.90
9790;DHT22;4934;50.852;8.098;2023-05-07T11:53:26;23.20;99.90
9790;DHT22;4934;50.852;8.098;2023-05-07T11:55:53;23.20;99.90
9790;DHT22;4934;50.852;8.098;2023-05-07T11:58:23;23.10;99.90
9790;DHT22;4934;50.852;8.098;2023-05-07T12:00:50;23.20;99.90
9790;DHT22;4934;50.852;8.098;2023-05-07T12:03:16;23.40;99.90
9790;DHT22;4934;50.852;8.098;2023-05-07T12:05:45;23.30;99.90
9790;DHT22;4934;50.852;8.098;2023-05-07T12:08:18;23.20;99.90
9790;DHT22;4934;50.852;8.098;2023-05-07T12:10:45;23.10;99.90
9790;DHT22;4934;50.852;8.098;2023-05-07T12:13:17;23.00;99.90
9790;DHT22;4934;50.852;8.098;2023-05-07T12:15:43;22.70;99.90
9790;DHT22;4934;50.852;8.098;2023-05-07T12:18:13;22.50;99.90
9790;DHT22;4934;50.852;8.098;2023-05-07T12:20:39;22.30;99.90
9790;DHT22;4934;50.852;8.098;2023-05-07T12:23:05;22.20;99.90
9790;DHT22;4934;50.852;8.098;2023-05-07T12:25:35;22.40;99.90
9790;DHT22;4934;50.852;8.098;2023-05-07T12:28:02;22.60;99.90
9790;DHT22;4934;50.852;8.098;2023-05-07T12:30:31;22.60;99.90
9790;DHT22;4934;50.852;8.098;2023-05-07T12:32:56;22.50;99.90
9790;DHT22;4934;50.852;8.098;2023-05-07T12:35:32;22.60;99.90
9790;DHT22;4934;50.852;8.098;2023-05-07T12:38:01;22.50;99.90
9790;DHT22;4934;50.852;8.098;2023-05-07T12:40:46;22.10;99.90
9790;DHT22;4934;50.852;8.098;2023-05-07T12:43:30;21.90;99.90
9790;DHT22;4934;50.852;8.098;2023-05-07T12:46:00;22.10;99.90
9790;DHT22;4934;50.852;8.098;2023-05-07T12:48:27;21.80;99.90
9790;DHT22;4934;50.852;8.098;2023-05-07T12:50:53;21.80;99.90
9790;DHT22;4934;50.852;8.098;2023-05-07T12:53:21;21.70;99.90
9790;DHT22;4934;50.852;8.098;2023-05-07T12:55:48;21.60;99.90
9790;DHT22;4934;50.852;8.098;2023-05-07T12:58:16;21.80;99.90
9790;DHT22;4934;50.852;8.098;2023-05-07T13:00:43;22.00;99.90
9790;DHT22;4934;50.852;8.098;2023-05-07T13:03:09;22.20;99.90
9790;DHT22;4934;50.852;8.098;2023-05-07T13:05:35;22.30;99.90
9790;DHT22;4934;50.852;8.098;2023-05-07T13:08:01;22.20;99.90
9790;DHT22;4934;50.852;8.098;2023-05-07T13:10:27;22.00;99.90
9790;DHT22;4934;50.852;8.098;2023-05-07T13:12:52;22.10;99.90
9790;DHT22;4934;50.852;8.098;2023-05-07T13:15:19;22.20;99.90
9790;DHT22;4934;50.852;8.098;2023-05-07T13:17:45;22.10;99.90
9790;DHT22;4934;50.852;8.098;2023-05-07T13:20:11;21.90;99.90
9790;DHT22;4934;50.852;8.098;2023-05-07T13:22:38;21.80;99.90
9790;DHT22;4934;50.852;8.098;2023-05-07T13:25:04;21.90;99.90
9790;DHT22;4934;50.852;8.098;2023-05-07T13:27:30;22.00;99.90
9790;DHT22;4934;50.852;8.098;2023-05-07T13:29:56;22.20;99.90
9790;DHT22;4934;50.852;8.098;2023-05-07T13:32:22;22.10;99.90
9790;DHT22;4934;50.852;8.098;2023-05-07T13:34:47;21.90;99.90
9790;DHT22;4934;50.852;8.098;2023-05-07T13:37:13;21.70;99.90
9790;DHT22;4934;50.852;8.098;2023-05-07T13:39:38;21.80;99.90
9790;DHT22;4934;50.852;8.098;2023-05-07T13:42:04;21.90;99.90
9790;DHT22;4934;50.852;8.098;2023-05-07T13:44:30;21.90;99.90
9790;DHT22;4934;50.852;8.098;2023-05-07T13:46:55;22.00;99.90
9790;DHT22;4934;50.852;8.098;2023-05-07T13:49:21;22.10;99.90
9790;DHT22;4934;50.852;8.098;2023-05-07T13:51:46;22.00;99.90
9790;DHT22;4934;50.852;8.098;2023-05-07T13:54:12;22.10;99.90
9790;DHT22;4934;50.852;8.098;2023-05-07T13:56:38;21.90;99.90
9790;DHT22;4934;50.852;8.098;2023-05-07T13:59:03;21.90;99.90
9790;DHT22;4934;50.852;8.098;2023-05-07T14:01:29;21.80;99.90
9790;DHT22;4934;50.852;8.098;2023-05-07T14:03:56;21.80;99.90
9790;DHT22;4934;50.852;8.098;2023-05-07T14:06:23;21.70;99.90
9790;DHT22;4934;50.852;8.098;2023-05-07T14:08:48;21.60;99.90
9790;DHT22;4934;50.852;8.098;2023-05-07T14:11:14;21.60;99.90
9790;DHT22;4934;50.852;8.098;2023-05-07T14:13:39;21.60;99.90
9790;DHT22;4934;50.852;8.098;2023-05-07T14:16:05;21.70;99.90
9790;DHT22;4934;50.852;8.098;2023-05-07T14:18:31;21.70;99.90
9790;DHT22;4934;50.852;8.098;2023-05-07T14:20:57;21.70;99.90
9790;DHT22;4934;50.852;8.098;2023-05-07T14:23:22;21.40;99.90
9790;DHT22;4934;50.852;8.098;2023-05-07T14:25:52;21.00;99.90
9790;DHT22;4934;50.852;8.098;2023-05-07T14:28:18;21.10;99.90
9790;DHT22;4934;50.852;8.098;2023-05-07T14:30:43;21.20;99.90
9790;DHT22;4934;50.852;8.098;2023-05-07T14:33:09;21.10;99.90
9790;DHT22;4934;50.852;8.098;2023-05-07T14:35:34;21.10;99.90
9790;DHT22;4934;50.852;8.098;2023-05-07T14:38:00;20.90;99.90
9790;DHT22;4934;50.852;8.098;2023-05-07T14:40:26;21.00;99.90
9790;DHT22;4934;50.852;8.098;2023-05-07T14:42:51;21.00;99.90
9790;DHT22;4934;50.852;8.098;2023-05-07T14:45:17;20.90;99.90
9790;DHT22;4934;50.852;8.098;2023-05-07T14:47:42;20.90;99.90
9790;DHT22;4934;50.852;8.098;2023-05-07T14:50:08;20.90;99.90
9790;DHT22;4934;50.852;8.098;2023-05-07T14:52:34;20.80;99.90
9790;DHT22;4934;50.852;8.098;2023-05-07T14:54:59;20.70;99.90
9790;DHT22;4934;50.852;8.098;2023-05-07T14:57:25;20.60;99.90
9790;DHT22;4934;50.852;8.098;2023-05-07T14:59:51;20.50;99.90
9790;DHT22;4934;50.852;8.098;2023-05-07T15:02:16;20.30;99.90
9790;DHT22;4934;50.852;8.098;2023-05-07T15:04:42;20.30;99.90
9790;DHT22;4934;50.852;8.098;2023-05-07T15:07:14;20.30;99.90
9790;DHT22;4934;50.852;8.098;2023-05-07T15:09:44;20.30;99.90
9790;DHT22;4934;50.852;8.098;2023-05-07T15:12:10;20.20;99.90
9790;DHT22;4934;50.852;8.098;2023-05-07T15:14:40;20.20;99.90
9790;DHT22;4934;50.852;8.098;2023-05-07T15:17:05;20.20;99.90
9790;DHT22;4934;50.852;8.098;2023-05-07T15:19:31;20.10;99.90
9790;DHT22;4934;50.852;8.098;2023-05-07T15:21:57;20.00;99.90
9790;DHT22;4934;50.852;8.098;2023-05-07T15:24:25;19.90;99.90
9790;DHT22;4934;50.852;8.098;2023-05-07T15:26:52;19.80;99.90
9790;DHT22;4934;50.852;8.098;2023-05-07T15:29:17;19.80;99.90
9790;DHT22;4934;50.852;8.098;2023-05-07T15:31:43;19.80;99.90
9790;DHT22;4934;50.852;8.098;2023-05-07T15:34:09;19.60;99.90
9790;DHT22;4934;50.852;8.098;2023-05-07T15:36:34;19.60;99.90
9790;DHT22;4934;50.852;8.098;2023-05-07T15:39:00;19.60;99.90
9790;DHT22;4934;50.852;8.098;2023-05-07T15:41:27;19.60;99.90
9790;DHT22;4934;50.852;8.098;2023-05-07T15:43:53;19.50;99.90
9790;DHT22;4934;50.852;8.098;2023-05-07T15:46:20;19.50;99.90
9790;DHT22;4934;50.852;8.098;2023-05-07T15:48:46;19.50;99.90
9790;DHT22;4934;50.852;8.098;2023-05-07T15:51:12;19.50;99.90
9790;DHT22;4934;50.852;8.098;2023-05-07T15:53:38;19.40;99.90
9790;DHT22;4934;50.852;8.098;2023-05-07T15:56:04;19.30;99.90
9790;DHT22;4934;50.852;8.098;2023-05-07T15:58:30;19.00;99.90
9790;DHT22;4934;50.852;8.098;2023-05-07T16:00:55;18.90;99.90
9790;DHT22;4934;50.852;8.098;2023-05-07T16:03:21;18.70;99.90
9790;DHT22;4934;50.852;8.098;2023-05-07T16:05:47;18.50;99.90
9790;DHT22;4934;50.852;8.098;2023-05-07T16:08:13;18.40;99.90
9790;DHT22;4934;50.852;8.098;2023-05-07T16:10:39;18.30;99.90
9790;DHT22;4934;50.852;8.098;2023-05-07T16:13:05;18.20;99.90
9790;DHT22;4934;50.852;8.098;2023-05-07T16:15:31;18.30;99.90